createdAt,value
2022-10-28T00:00:54.900Z,101988.00
2022-10-28T00:03:23.051Z,101979.59
2022-10-28T00:05:51.047Z,101987.28
2022-10-28T00:08:19.162Z,101987.00
2022-10-28T00:10:47.237Z,101984.66
2022-10-28T00:13:16.600Z,101975.22
2022-10-28T00:15:44.585Z,101974.97
2022-10-28T00:18:12.538Z,101984.94
2022-10-28T00:20:40.564Z,101989.09
2022-10-28T00:23:08.812Z,101986.75
2022-10-28T00:25:36.828Z,101987.63
2022-10-28T00:28:04.849Z,101988.53
2022-10-28T00:30:34.180Z,101993.97
2022-10-28T00:33:02.193Z,101997.94
2022-10-28T00:35:30.134Z,101995.47
2022-10-28T00:37:58.091Z,101995.53
2022-10-28T00:40:26.076Z,101998.53
2022-10-28T00:42:54.389Z,101993.97
2022-10-28T00:45:22.877Z,101995.81
2022-10-28T00:47:56.096Z,101996.50
2022-10-28T00:50:40.989Z,102001.88
2022-10-28T00:53:14.389Z,101989.31
2022-10-28T00:55:44.235Z,101998.09
2022-10-28T00:58:13.257Z,101988.69
2022-10-28T01:00:41.634Z,101996.56
2022-10-28T01:03:11.082Z,101998.47
2022-10-28T01:05:43.310Z,101999.25
2022-10-28T01:08:12.158Z,101935.06
2022-10-28T01:10:55.291Z,101995.53
2022-10-28T01:13:34.733Z,101987.31
2022-10-28T01:16:09.107Z,101990.03
2022-10-28T01:18:48.798Z,101991.22
2022-10-28T01:21:37.697Z,101988.09
2022-10-28T01:24:19.135Z,101990.13
2022-10-28T01:27:05.636Z,101981.56
2022-10-28T01:30:09.445Z,101990.06
2022-10-28T01:32:50.086Z,101990.69
2022-10-28T01:35:25.087Z,101987.19
2022-10-28T01:38:03.554Z,101985.63
2022-10-28T01:40:36.250Z,101993.88
2022-10-28T01:43:13.535Z,101986.34
2022-10-28T01:45:49.765Z,101989.84
2022-10-28T01:48:22.542Z,101992.50
2022-10-28T01:50:56.799Z,101990.72
2022-10-28T01:53:28.979Z,101978.50
2022-10-28T01:56:00.823Z,101986.19
2022-10-28T01:58:31.754Z,101985.16
2022-10-28T02:01:02.062Z,101982.50
2022-10-28T02:03:31.527Z,101980.72
2022-10-28T02:06:02.755Z,101984.31
2022-10-28T02:08:45.339Z,101978.25
2022-10-28T02:11:26.657Z,101985.41
2022-10-28T02:14:05.066Z,101985.75
2022-10-28T02:16:44.650Z,101991.97
2022-10-28T02:19:20.069Z,101987.88
2022-10-28T02:21:56.498Z,101994.88
2022-10-28T02:24:34.387Z,101997.69
2022-10-28T02:27:12.410Z,101999.59
2022-10-28T02:29:47.354Z,102001.47
2022-10-28T02:32:18.994Z,101991.41
2022-10-28T02:34:52.582Z,102004.34
2022-10-28T02:37:23.906Z,101995.75
2022-10-28T02:39:56.711Z,101996.69
2022-10-28T02:42:28.672Z,101991.84
2022-10-28T02:45:03.174Z,101997.03
2022-10-28T02:47:38.846Z,101998.97
2022-10-28T02:50:14.194Z,101998.31
2022-10-28T02:52:46.780Z,101986.53
2022-10-28T02:55:15.168Z,101995.13
2022-10-28T02:57:48.543Z,101995.97
2022-10-28T03:00:19.242Z,101993.47
2022-10-28T03:02:47.533Z,101994.50
2022-10-28T03:05:17.306Z,102003.19
2022-10-28T03:07:45.401Z,101998.94
2022-10-28T03:10:13.458Z,101994.69
2022-10-28T03:12:41.468Z,101993.97
2022-10-28T03:15:10.418Z,102007.72
2022-10-28T03:17:38.438Z,102006.16
2022-10-28T03:20:07.806Z,102005.34
2022-10-28T03:22:37.373Z,102008.22
2022-10-28T03:25:06.426Z,102012.66
2022-10-28T03:27:34.501Z,102005.22
2022-10-28T03:30:02.561Z,102003.50
2022-10-28T03:32:30.594Z,102002.97
2022-10-28T03:34:58.689Z,102005.13
2022-10-28T03:37:26.852Z,101996.88
2022-10-28T03:39:56.346Z,102004.41
2022-10-28T03:42:24.811Z,101996.47
2022-10-28T03:44:52.845Z,102001.59
2022-10-28T03:47:20.816Z,101999.16
2022-10-28T03:49:48.863Z,102004.69
2022-10-28T03:52:16.916Z,101993.03
2022-10-28T03:54:45.053Z,102005.75
2022-10-28T03:57:14.603Z,101997.34
2022-10-28T03:59:42.670Z,101996.66
2022-10-28T04:02:10.923Z,102008.34
2022-10-28T04:04:38.956Z,102005.84
2022-10-28T04:07:06.925Z,102007.03
2022-10-28T04:09:34.889Z,102009.63
2022-10-28T04:12:03.033Z,102007.34
2022-10-28T04:14:32.466Z,102003.56
2022-10-28T04:17:00.519Z,102010.13
2022-10-28T04:19:28.560Z,102013.22
2022-10-28T04:21:56.612Z,102011.34
2022-10-28T04:24:24.610Z,102022.56
2022-10-28T04:26:52.694Z,102015.50
2022-10-28T04:29:20.741Z,102020.78
2022-10-28T04:31:52.270Z,102018.22
2022-10-28T04:34:20.834Z,102020.09
2022-10-28T04:36:48.880Z,102021.06
2022-10-28T04:39:17.418Z,102019.31
2022-10-28T04:41:45.580Z,102021.81
2022-10-28T04:44:13.685Z,102023.41
2022-10-28T04:46:41.782Z,102024.19
2022-10-28T04:49:11.604Z,102031.03
2022-10-28T04:51:39.611Z,102031.88
2022-10-28T04:54:07.917Z,102036.97
2022-10-28T04:56:35.989Z,102030.03
2022-10-28T04:59:03.993Z,102033.31
2022-10-28T05:01:32.061Z,102034.97
2022-10-28T05:04:00.036Z,102033.22
2022-10-28T05:06:29.398Z,102033.25
2022-10-28T05:08:57.829Z,102022.94
2022-10-28T05:11:26.114Z,102026.38
2022-10-28T05:13:54.321Z,102035.00
2022-10-28T05:16:22.425Z,102034.88
2022-10-28T05:18:50.488Z,102040.72
2022-10-28T05:21:18.514Z,102033.94
2022-10-28T05:23:48.206Z,102043.22
2022-10-28T05:26:16.289Z,102049.19
2022-10-28T05:28:44.362Z,102047.31
2022-10-28T05:31:12.292Z,102043.72
2022-10-28T05:33:40.247Z,102046.94
2022-10-28T05:36:09.497Z,102042.50
2022-10-28T05:38:37.513Z,102055.09
2022-10-28T05:41:07.282Z,102046.19
2022-10-28T05:43:35.294Z,102051.91
2022-10-28T05:46:03.943Z,102050.78
2022-10-28T05:48:32.122Z,102047.78
2022-10-28T05:51:00.102Z,102016.00
2022-10-28T05:53:28.016Z,102044.38
2022-10-28T05:55:55.934Z,102055.06
2022-10-28T05:58:25.224Z,102044.47
2022-10-28T06:00:53.263Z,102063.63
2022-10-28T06:03:21.275Z,102061.25
2022-10-28T06:05:49.372Z,102057.41
2022-10-28T06:08:17.396Z,102051.09
2022-10-28T06:10:53.675Z,102057.19
2022-10-28T06:13:21.865Z,102066.03
2022-10-28T06:15:55.326Z,102062.88
2022-10-28T06:18:24.220Z,102062.09
2022-10-28T06:20:53.681Z,102064.81
2022-10-28T06:23:21.898Z,102063.88
2022-10-28T06:25:50.285Z,102072.75
2022-10-28T06:28:18.238Z,102066.13
2022-10-28T06:30:46.147Z,102069.06
2022-10-28T06:33:15.459Z,102075.72
2022-10-28T06:35:43.659Z,102068.91
2022-10-28T06:38:12.009Z,102079.34
2022-10-28T06:40:39.942Z,102082.28
2022-10-28T06:43:13.038Z,102082.25
2022-10-28T06:45:41.065Z,102085.25
2022-10-28T06:48:11.752Z,102087.72
2022-10-28T06:50:41.317Z,102089.16
2022-10-28T06:53:10.397Z,102078.50
2022-10-28T06:55:38.335Z,102082.53
2022-10-28T06:58:06.324Z,102074.22
2022-10-28T07:00:34.934Z,102080.69
2022-10-28T07:03:03.027Z,102082.00
2022-10-28T07:05:31.075Z,102066.47
2022-10-28T07:08:00.430Z,102081.16
2022-10-28T07:10:28.655Z,102076.84
2022-10-28T07:12:56.969Z,102069.78
2022-10-28T07:15:25.093Z,102068.94
2022-10-28T07:17:54.354Z,102075.19
2022-10-28T07:20:22.816Z,102067.16
2022-10-28T07:22:57.126Z,102059.34
2022-10-28T07:25:26.736Z,102060.84
2022-10-28T07:27:55.125Z,102066.66
2022-10-28T07:30:23.290Z,102069.53
2022-10-28T07:32:51.585Z,102062.69
2022-10-28T07:35:19.794Z,102066.09
2022-10-28T07:37:48.127Z,102070.34
2022-10-28T07:40:16.120Z,102061.50
2022-10-28T07:42:45.400Z,102070.72
2022-10-28T07:45:13.338Z,102074.03
2022-10-28T07:47:41.420Z,102066.91
2022-10-28T07:50:11.160Z,102072.22
2022-10-28T07:52:39.736Z,102059.84
2022-10-28T07:55:08.922Z,102063.63
2022-10-28T07:57:36.854Z,102067.13
2022-10-28T08:00:08.038Z,102057.00
2022-10-28T08:02:36.001Z,102063.34
2022-10-28T08:05:04.079Z,102063.44
2022-10-28T08:07:34.908Z,102049.53
2022-10-28T08:10:06.587Z,102055.63
2022-10-28T08:12:34.952Z,102056.78
2022-10-28T08:15:02.948Z,102063.53
2022-10-28T08:17:32.246Z,102053.75
2022-10-28T08:20:00.150Z,102057.22
2022-10-28T08:22:28.056Z,102056.03
2022-10-28T08:24:55.980Z,102052.03
2022-10-28T08:27:23.893Z,102058.97
2022-10-28T08:29:53.411Z,102056.91
2022-10-28T08:32:21.355Z,102058.09
2022-10-28T08:34:50.699Z,102064.03
2022-10-28T08:37:18.661Z,102051.81
2022-10-28T08:39:46.767Z,102058.59
2022-10-28T08:42:30.087Z,102047.25
2022-10-28T08:45:21.476Z,102055.78
2022-10-28T08:50:33.977Z,102048.88
2022-10-28T08:53:06.056Z,102030.13
2022-10-28T08:55:37.822Z,102047.88
2022-10-28T08:58:12.475Z,102043.56
2022-10-28T09:00:41.427Z,102052.97
2022-10-28T09:03:20.641Z,102054.91
2022-10-28T09:05:55.239Z,102056.00
2022-10-28T09:08:25.547Z,102050.72
2022-10-28T09:11:28.159Z,102050.59
2022-10-28T09:14:10.579Z,102025.56
2022-10-28T09:16:46.151Z,102054.00
2022-10-28T09:19:26.236Z,102049.41
2022-10-28T09:22:09.415Z,102055.66
2022-10-28T09:24:45.668Z,102041.75
2022-10-28T09:27:23.811Z,102038.28
2022-10-28T09:30:01.656Z,102036.84
2022-10-28T09:32:41.768Z,102018.84
2022-10-28T09:35:14.602Z,102039.25
2022-10-28T09:37:48.229Z,102035.75
2022-10-28T09:40:21.647Z,102031.69
2022-10-28T09:43:01.639Z,102027.63
2022-10-28T09:45:33.186Z,102029.78
2022-10-28T09:48:04.788Z,102030.59
2022-10-28T09:50:34.492Z,102020.19
2022-10-28T09:53:11.056Z,102015.59
2022-10-28T09:55:39.194Z,102016.31
2022-10-28T09:58:07.192Z,102013.94
2022-10-28T10:00:35.260Z,102005.53
2022-10-28T10:03:03.432Z,102003.25
2022-10-28T10:05:33.925Z,101996.88
2022-10-28T10:08:06.276Z,101997.63
2022-10-28T10:10:49.856Z,101997.88
2022-10-28T10:13:21.235Z,102002.63
2022-10-28T10:15:53.959Z,102007.44
2022-10-28T10:18:25.966Z,101993.63
2022-10-28T10:20:58.686Z,102001.66
2022-10-28T10:23:34.209Z,101996.38
2022-10-28T10:26:09.549Z,101995.06
2022-10-28T10:28:44.895Z,101995.75
2022-10-28T10:31:20.272Z,101991.66
2022-10-28T10:33:52.031Z,101983.13
2022-10-28T10:36:23.766Z,101984.69
2022-10-28T10:38:55.709Z,101975.66
2022-10-28T10:41:36.897Z,101984.53
2022-10-28T10:44:26.206Z,101979.38
2022-10-28T10:47:19.769Z,101975.25
2022-10-28T10:49:47.668Z,101977.06
2022-10-28T10:52:20.369Z,101969.78
2022-10-28T10:55:00.043Z,101964.25
2022-10-28T10:57:28.791Z,101967.16
2022-10-28T10:59:58.233Z,101965.13
2022-10-28T11:02:29.413Z,101970.41
2022-10-28T11:05:01.276Z,101955.00
2022-10-28T11:07:30.839Z,101964.06
2022-10-28T11:10:01.772Z,101963.94
2022-10-28T11:12:32.299Z,101958.66
2022-10-28T11:15:02.110Z,101961.28
2022-10-28T11:20:02.879Z,101946.16
2022-10-28T11:22:41.502Z,101953.88
2022-10-28T11:25:27.542Z,101950.72
2022-10-28T11:28:13.109Z,101945.66
2022-10-28T11:30:54.719Z,101947.84
2022-10-28T11:33:31.339Z,101945.28
2022-10-28T11:36:09.445Z,101941.47
2022-10-28T11:39:01.393Z,101925.34
2022-10-28T11:41:45.022Z,101940.63
2022-10-28T11:44:27.762Z,101932.34
2022-10-28T11:47:11.129Z,101924.00
2022-10-28T11:50:03.520Z,101930.94
2022-10-28T11:52:45.584Z,101920.22
2022-10-28T11:55:28.841Z,101925.16
2022-10-28T11:58:07.415Z,101918.41
2022-10-28T12:00:48.322Z,101921.47
2022-10-28T12:03:36.359Z,101918.19
2022-10-28T12:06:16.426Z,101914.81
2022-10-28T12:09:14.646Z,101906.78
2022-10-28T12:12:00.289Z,101913.06
2022-10-28T12:14:38.255Z,101899.56
2022-10-28T12:17:14.707Z,101905.47
2022-10-28T12:19:49.340Z,101904.84
2022-10-28T12:22:24.838Z,101905.25
2022-10-28T12:24:54.426Z,101901.66
2022-10-28T12:27:26.886Z,101904.00
2022-10-28T12:30:00.968Z,101897.31
2022-10-28T12:32:32.199Z,101897.56
2022-10-28T12:35:06.506Z,101881.34
2022-10-28T12:37:42.211Z,101885.16
2022-10-28T12:40:17.470Z,101887.75
2022-10-28T12:42:50.369Z,101880.94
2022-10-28T12:45:22.639Z,101884.69
2022-10-28T12:47:59.607Z,101878.31
2022-10-28T12:50:33.512Z,101877.00
2022-10-28T12:53:18.074Z,101869.34
2022-10-28T12:55:52.717Z,101866.22
2022-10-28T12:58:28.333Z,101882.03
2022-10-28T13:01:02.106Z,101875.66
2022-10-28T13:03:29.850Z,101873.88
2022-10-28T13:06:13.417Z,101879.31
2022-10-28T13:09:18.945Z,101872.47
2022-10-28T13:12:13.584Z,101873.75
2022-10-28T13:15:15.016Z,101869.44
2022-10-28T13:17:58.093Z,101867.84
2022-10-28T13:20:39.705Z,101867.16
2022-10-28T13:23:17.770Z,101871.94
2022-10-28T13:25:59.630Z,101872.63
2022-10-28T13:28:32.934Z,101857.09
2022-10-28T13:31:03.395Z,101872.88
2022-10-28T13:33:35.987Z,101857.47
2022-10-28T13:36:17.239Z,101867.56
2022-10-28T13:38:52.278Z,101872.22
2022-10-28T13:41:35.873Z,101867.91
2022-10-28T13:44:30.827Z,101869.34
2022-10-28T13:47:27.447Z,101875.31
2022-10-28T13:50:16.549Z,101866.81
2022-10-28T13:52:45.958Z,101862.53
2022-10-28T13:55:25.248Z,101856.91
2022-10-28T13:58:00.326Z,101852.25
2022-10-28T14:00:36.781Z,101862.00
2022-10-28T14:03:06.786Z,101851.69
2022-10-28T14:05:58.513Z,101846.88
2022-10-28T14:08:31.031Z,101852.84
2022-10-28T14:11:05.957Z,101851.31
2022-10-28T14:13:38.355Z,101843.56
2022-10-28T14:16:25.158Z,101845.25
2022-10-28T14:18:56.882Z,101845.47
2022-10-28T14:21:26.423Z,101851.59
2022-10-28T14:24:13.586Z,101842.94
2022-10-28T14:27:26.316Z,101849.63
2022-10-28T14:30:23.799Z,101852.16
2022-10-28T14:33:00.648Z,101850.00
2022-10-28T14:35:38.713Z,101845.94
2022-10-28T14:38:58.248Z,101845.88
2022-10-28T14:41:47.024Z,101844.50
2022-10-28T14:44:36.054Z,101848.53
2022-10-28T14:47:20.075Z,101853.25
2022-10-28T14:50:01.754Z,101847.63
2022-10-28T14:52:32.532Z,101851.63
2022-10-28T14:55:05.211Z,101848.88
2022-10-28T14:57:35.056Z,101845.34
2022-10-28T15:00:05.571Z,101845.13
2022-10-28T15:02:35.419Z,101843.06
2022-10-28T15:05:14.883Z,101840.09
2022-10-28T15:07:43.658Z,101847.66
2022-10-28T15:10:23.014Z,101829.59
2022-10-28T15:12:51.815Z,101840.09
2022-10-28T15:15:22.306Z,101827.34
2022-10-28T15:17:51.013Z,101841.44
2022-10-28T15:20:24.708Z,101843.31
2022-10-28T15:22:52.997Z,101843.81
2022-10-28T15:25:24.001Z,101847.03
2022-10-28T15:27:53.508Z,101844.81
2022-10-28T15:30:24.857Z,101849.72
2022-10-28T15:32:53.559Z,101843.09
2022-10-28T15:35:40.178Z,101838.44
2022-10-28T15:38:27.111Z,101852.91
2022-10-28T15:40:56.819Z,101852.00
2022-10-28T15:43:27.625Z,101849.78
2022-10-28T15:45:56.097Z,101838.66
2022-10-28T15:48:26.016Z,101854.84
2022-10-28T15:51:15.338Z,101857.00
2022-10-28T15:53:44.340Z,101853.38
2022-10-28T15:56:26.633Z,101853.41
2022-10-28T15:59:13.967Z,101857.09
2022-10-28T16:01:42.382Z,101854.47
2022-10-28T16:04:40.044Z,101849.25
2022-10-28T16:07:09.646Z,101843.66
2022-10-28T16:09:43.362Z,101857.38
2022-10-28T16:12:17.087Z,101847.72
2022-10-28T16:14:46.660Z,101853.31
2022-10-28T16:17:18.124Z,101865.09
2022-10-28T16:19:52.083Z,101861.13
2022-10-28T16:22:20.503Z,101859.66
2022-10-28T16:24:48.421Z,101858.31
2022-10-28T16:27:22.893Z,101856.31
2022-10-28T16:29:51.669Z,101853.97
2022-10-28T16:32:26.075Z,101865.94
2022-10-28T16:34:53.944Z,101869.94
2022-10-28T16:37:24.551Z,101865.81
2022-10-28T16:39:52.881Z,101866.81
2022-10-28T16:42:23.368Z,101864.94
2022-10-28T16:44:51.796Z,101862.63
2022-10-28T16:47:21.038Z,101862.38
2022-10-28T16:49:54.204Z,101862.19
2022-10-28T16:52:26.865Z,101864.22
2022-10-28T16:54:54.735Z,101867.84
2022-10-28T16:59:57.609Z,101866.81
2022-10-28T17:02:28.495Z,101864.47
2022-10-28T17:04:57.116Z,101866.69
2022-10-28T17:07:25.794Z,101864.38
2022-10-28T17:09:53.766Z,101875.34
2022-10-28T17:12:24.887Z,101863.75
2022-10-28T17:14:53.079Z,101865.09
2022-10-28T17:17:21.020Z,101863.75
2022-10-28T17:19:49.058Z,101861.53
2022-10-28T17:22:17.053Z,101857.69
2022-10-28T17:24:44.969Z,101854.44
2022-10-28T17:27:13.030Z,101856.56
2022-10-28T17:29:42.452Z,101858.69
2022-10-28T17:32:10.507Z,101854.88
2022-10-28T17:34:38.512Z,101866.31
2022-10-28T17:37:07.866Z,101858.56
2022-10-28T17:39:35.979Z,101848.59
2022-10-28T17:42:04.335Z,101858.19
2022-10-28T17:44:32.252Z,101854.88
2022-10-28T17:47:01.641Z,101849.22
2022-10-28T17:49:29.981Z,101851.97
2022-10-28T17:51:57.919Z,101865.00
2022-10-28T17:54:25.913Z,101859.94
2022-10-28T17:56:53.912Z,101859.41
2022-10-28T17:59:21.940Z,101859.47
2022-10-28T18:01:50.031Z,101852.03
2022-10-28T18:04:20.254Z,101849.91
2022-10-28T18:06:48.184Z,101857.16
2022-10-28T18:09:16.134Z,101854.84
2022-10-28T18:11:44.124Z,101849.66
2022-10-28T18:14:12.081Z,101851.53
2022-10-28T18:16:40.026Z,101844.81
2022-10-28T18:19:08.834Z,101853.47
2022-10-28T18:21:38.139Z,101840.78
2022-10-28T18:24:06.571Z,101844.75
2022-10-28T18:26:36.325Z,101846.25
2022-10-28T18:29:05.004Z,101845.41
2022-10-28T18:31:34.210Z,101844.75
2022-10-28T18:34:03.038Z,101836.44
2022-10-28T18:36:34.586Z,101840.97
2022-10-28T18:39:05.807Z,101840.91
2022-10-28T18:41:36.173Z,101838.91
2022-10-28T18:44:05.676Z,101842.22
2022-10-28T18:46:37.620Z,101839.66
2022-10-28T18:49:06.443Z,101838.75
2022-10-28T18:51:34.961Z,101842.53
2022-10-28T18:54:05.099Z,101853.16
2022-10-28T18:56:34.335Z,101848.34
2022-10-28T18:59:04.122Z,101847.81
2022-10-28T19:01:33.159Z,101846.97
2022-10-28T19:04:02.725Z,101850.81
2022-10-28T19:06:33.315Z,101839.09
2022-10-28T19:09:05.414Z,101849.53
2022-10-28T19:11:36.006Z,101837.94
2022-10-28T19:14:06.427Z,101854.34
2022-10-28T19:16:35.113Z,101854.00
2022-10-28T19:19:05.439Z,101846.47
2022-10-28T19:21:33.823Z,101860.06
2022-10-28T19:24:01.790Z,101858.81
2022-10-28T19:26:32.045Z,101859.56
2022-10-28T19:29:00.424Z,101860.69
2022-10-28T19:31:30.189Z,101868.88
2022-10-28T19:33:58.119Z,101862.50
2022-10-28T19:36:27.595Z,101861.47
2022-10-28T19:38:56.484Z,101869.44
2022-10-28T19:41:25.716Z,101868.25
2022-10-28T19:43:58.226Z,101873.53
2022-10-28T19:46:27.927Z,101868.81
2022-10-28T19:48:57.681Z,101870.13
2022-10-28T19:51:28.325Z,101869.03
2022-10-28T19:53:58.129Z,101881.00
2022-10-28T19:56:26.924Z,101866.84
2022-10-28T19:58:57.939Z,101876.63
2022-10-28T20:01:27.700Z,101868.72
2022-10-28T20:03:56.744Z,101875.22
2022-10-28T20:06:26.479Z,101872.19
2022-10-28T20:08:54.420Z,101868.59
2022-10-28T20:11:26.301Z,101869.44
2022-10-28T20:13:57.902Z,101866.06
2022-10-28T20:16:26.620Z,101874.78
2022-10-28T20:18:55.277Z,101876.91
2022-10-28T20:21:24.794Z,101874.38
2022-10-28T20:23:55.052Z,101864.59
2022-10-28T20:26:24.813Z,101866.22
2022-10-28T20:28:53.063Z,101866.81
2022-10-28T20:31:24.054Z,101865.41
2022-10-28T20:33:53.170Z,101854.16
2022-10-28T20:36:25.818Z,101875.94
2022-10-28T20:38:57.341Z,101873.72
2022-10-28T20:41:26.407Z,101866.56
2022-10-28T20:43:55.158Z,101869.09
2022-10-28T20:46:25.831Z,101871.94
2022-10-28T20:48:54.974Z,101865.63
2022-10-28T20:51:23.298Z,101869.25
2022-10-28T20:53:51.411Z,101872.16
2022-10-28T20:56:21.291Z,101869.81
2022-10-28T20:58:49.331Z,101872.69
2022-10-28T21:01:19.298Z,101864.22
2022-10-28T21:03:49.495Z,101865.34
2022-10-28T21:06:19.324Z,101860.34
2022-10-28T21:08:47.293Z,101851.13
2022-10-28T21:11:16.980Z,101855.47
2022-10-28T21:13:46.826Z,101861.78
2022-10-28T21:16:14.741Z,101856.72
2022-10-28T21:18:42.651Z,101861.91
2022-10-28T21:21:13.107Z,101850.22
2022-10-28T21:23:41.126Z,101857.19
2022-10-28T21:26:11.684Z,101853.91
2022-10-28T21:28:41.439Z,101858.53
2022-10-28T21:31:11.516Z,101851.75
2022-10-28T21:33:40.230Z,101845.88
2022-10-28T21:36:11.035Z,101858.53
2022-10-28T21:38:40.592Z,101856.78
2022-10-28T21:41:12.051Z,101861.19
2022-10-28T21:43:41.728Z,101851.88
2022-10-28T21:46:10.019Z,101853.56
2022-10-28T21:48:39.187Z,101855.53
2022-10-28T21:51:13.499Z,101850.72
2022-10-28T21:53:45.078Z,101853.97
2022-10-28T21:56:17.493Z,101848.19
2022-10-28T21:58:46.766Z,101856.44
2022-10-28T22:01:16.925Z,101851.19
2022-10-28T22:03:44.980Z,101845.53
2022-10-28T22:06:12.930Z,101844.47
2022-10-28T22:08:40.916Z,101843.44
2022-10-28T22:11:13.792Z,101845.97
2022-10-28T22:13:41.863Z,101845.13
2022-10-28T22:16:12.692Z,101844.22
2022-10-28T22:18:41.004Z,101844.41
2022-10-28T22:21:11.259Z,101839.53
2022-10-28T22:23:39.617Z,101838.88
2022-10-28T22:26:12.203Z,101829.06
2022-10-28T22:28:40.687Z,101847.19
2022-10-28T22:31:10.452Z,101838.78
2022-10-28T22:33:38.731Z,101841.69
2022-10-28T22:36:08.936Z,101841.44
2022-10-28T22:38:37.131Z,101834.19
2022-10-28T22:41:06.614Z,101833.25
2022-10-28T22:43:36.187Z,101833.09
2022-10-28T22:46:04.493Z,101828.63
2022-10-28T22:48:33.587Z,101830.31
2022-10-28T22:51:02.036Z,101824.84
2022-10-28T22:53:30.137Z,101821.28
2022-10-28T22:55:58.519Z,101824.56
2022-10-28T22:58:28.398Z,101819.47
2022-10-28T23:01:07.758Z,101815.22
2022-10-28T23:03:37.196Z,101825.50
2022-10-28T23:06:05.722Z,101819.59
2022-10-28T23:08:33.689Z,101811.25
2022-10-28T23:11:01.762Z,101817.22
2022-10-28T23:13:29.896Z,101817.09
2022-10-28T23:15:57.957Z,101816.13
2022-10-28T23:18:29.033Z,101816.13
2022-10-28T23:20:56.964Z,101779.84
2022-10-28T23:23:24.891Z,101818.78
2022-10-28T23:25:53.751Z,101815.41
2022-10-28T23:28:21.810Z,101810.28
2022-10-28T23:30:49.780Z,101815.69
2022-10-28T23:33:17.767Z,101807.16
2022-10-28T23:35:54.730Z,101805.50
2022-10-28T23:38:22.817Z,101807.22
2022-10-28T23:40:58.181Z,101800.66
2022-10-28T23:43:26.270Z,101797.25
2022-10-28T23:45:54.245Z,101800.97
2022-10-28T23:48:22.743Z,101797.69
2022-10-28T23:50:52.577Z,101805.69
2022-10-28T23:53:21.166Z,101803.22
2022-10-28T23:55:50.176Z,101796.59
2022-10-28T23:58:20.171Z,101806.13
